Time;durP1;ratioP1;P1;durP2;ratioP2;P2;SDS_P1;SDS_P2;PMS_P1;PMS_P2;Temp;Humidity;BMP_temperature;BMP_pressure;BME280_temperature;BME280_humidity;BME280_pressure;Samples;Min_cycle;Max_cycle;Signal;HPM_P1;HPM_P2
2022/11/07 00:02:17;;;;;;;1.70;0.80;;;;;;;-145.69;100.00;52493.91;5124738;28;20221;-79
2022/11/07 00:04:44;;;;;;;1.37;0.80;;;;;;;-145.69;100.00;52501.81;5126870;28;20201;-79
2022/11/07 00:07:11;;;;;;;1.80;1.10;;;;;;;-145.69;100.00;52503.81;5127363;27;20204;-79
2022/11/07 00:09:38;;;;;;;1.97;0.90;;;;;;;-145.69;100.00;52527.56;5127446;28;20208;-79
2022/11/07 00:12:05;;;;;;;3.40;1.00;;;;;;;-145.69;100.00;52519.63;5126805;28;20229;-79
2022/11/07 00:14:31;;;;;;;4.70;0.90;;;;;;;-145.69;100.00;52523.59;5140645;27;20283;-79
2022/11/07 00:16:59;;;;;;;2.50;1.00;;;;;;;-145.69;100.00;52495.88;5145686;27;20212;-79
2022/11/07 00:19:26;;;;;;;1.10;0.90;;;;;;;-145.69;100.00;52535.47;5146021;27;20746;-79
2022/11/07 00:21:52;;;;;;;1.57;0.87;;;;;;;-145.69;100.00;52511.72;5144926;27;20200;-79
2022/11/07 00:24:19;;;;;;;1.83;0.70;;;;;;;-145.69;100.00;52517.66;5145829;27;20207;-78
2022/11/07 00:26:46;;;;;;;4.73;1.00;;;;;;;-145.69;100.00;52527.56;5143745;27;20208;-79
2022/11/07 00:29:13;;;;;;;2.20;1.00;;;;;;;-145.69;100.00;52541.44;5144258;27;20220;-79
2022/11/07 00:31:39;;;;;;;1.50;1.03;;;;;;;-145.69;100.00;52551.31;5142820;27;20287;-79
2022/11/07 00:34:07;;;;;;;3.57;1.07;;;;;;;-145.69;100.00;52539.44;5144199;27;20221;-79
2022/11/07 00:36:34;;;;;;;5.90;0.90;;;;;;;-145.69;100.00;52535.47;5143527;27;20257;-79
2022/11/07 00:39:01;;;;;;;3.90;1.20;;;;;;;-145.69;100.00;52513.69;5143468;27;20643;-79
2022/11/07 00:41:28;;;;;;;2.37;0.97;;;;;;;-145.69;100.00;52511.72;5142194;27;20670;-79
2022/11/07 00:43:54;;;;;;;2.03;1.00;;;;;;;-145.69;100.00;52547.38;5143603;27;20210;-79
2022/11/07 00:46:21;;;;;;;2.80;1.07;;;;;;;-145.69;100.00;52543.41;5143621;27;20303;-79
2022/11/07 00:48:48;;;;;;;4.37;1.00;;;;;;;-145.69;100.00;52523.59;5144901;27;20287;-79
2022/11/07 00:51:18;;;;;;;1.67;1.00;;;;;;;-145.69;100.00;52539.44;5145193;27;20204;-79
2022/11/07 00:53:45;;;;;;;1.90;1.10;;;;;;;-145.69;100.00;52499.84;5145605;27;20232;-79
2022/11/07 00:56:14;;;;;;;2.70;0.73;;;;;;;-145.69;100.00;52555.28;5146420;27;20295;-79
2022/11/07 00:58:43;;;;;;;3.70;0.93;;;;;;;-145.69;100.00;52523.59;5146658;27;20719;-79
2022/11/07 01:01:12;;;;;;;3.37;1.00;;;;;;;-145.69;100.00;52517.66;5142302;27;20197;-79
2022/11/07 01:06:27;;;;;;;2.93;1.13;;;;;;;-145.69;100.00;52511.72;5141735;27;20277;-80
2022/11/07 01:08:55;;;;;;;2.90;1.10;;;;;;;-145.69;100.00;52511.72;5141108;27;20197;-79
2022/11/07 01:11:22;;;;;;;2.43;1.13;;;;;;;-145.69;100.00;52543.41;5140137;27;20197;-79
2022/11/07 01:13:49;;;;;;;5.67;1.30;;;;;;;-145.69;100.00;52521.63;5139751;27;20221;-79
2022/11/07 01:16:16;;;;;;;5.87;1.00;;;;;;;-145.69;100.00;52527.56;5139561;27;20193;-79
2022/11/07 01:18:42;;;;;;;1.30;0.93;;;;;;;-145.69;100.00;52545.38;5139143;27;20706;-79
2022/11/07 01:21:10;;;;;;;5.07;1.20;;;;;;;-145.69;100.00;52555.28;5139588;27;20313;-79
2022/11/07 01:23:38;;;;;;;4.63;1.27;;;;;;;-145.69;100.00;52521.63;5140233;27;20196;-79
2022/11/07 01:26:05;;;;;;;3.87;1.30;;;;;;;-145.69;100.00;52531.53;5140862;27;20209;-79
2022/11/07 01:28:32;;;;;;;2.80;1.33;;;;;;;-145.69;100.00;52527.56;5143070;27;20287;-79
2022/11/07 01:31:02;;;;;;;2.33;1.40;;;;;;;-145.69;100.00;52519.63;5142921;27;20224;-79
2022/11/07 01:33:28;;;;;;;2.83;1.10;;;;;;;-145.69;100.00;52543.41;5145596;27;20241;-79
2022/11/07 01:35:55;;;;;;;2.30;1.10;;;;;;;-145.69;100.00;52543.41;5146309;27;20559;-80
2022/11/07 01:38:21;;;;;;;4.33;1.20;;;;;;;-145.69;100.00;52551.31;5140938;27;20225;-79
2022/11/07 01:43:45;;;;;;;3.27;1.20;;;;;;;-145.69;100.00;52547.38;5124897;28;20564;-80
2022/11/07 01:46:12;;;;;;;2.53;1.10;;;;;;;-145.69;100.00;52531.53;5125214;28;20205;-80
2022/11/07 01:48:41;;;;;;;2.13;1.17;;;;;;;-145.69;100.00;52565.19;5125089;28;20212;-79
2022/11/07 01:51:08;;;;;;;3.47;1.30;;;;;;;-145.69;100.00;52539.44;5137125;27;20295;-80
2022/11/07 01:53:38;;;;;;;3.13;1.30;;;;;;;-145.69;100.00;52579.06;5143921;27;20221;-80
2022/11/07 01:56:13;;;;;;;2.63;0.97;;;;;;;-145.69;100.00;52549.34;5145395;27;20207;-80
2022/11/07 01:58:40;;;;;;;8.93;1.30;;;;;;;-145.69;100.00;52559.25;5145755;27;20204;-80
2022/11/07 02:01:08;;;;;;;2.90;1.30;;;;;;;-145.69;100.00;52594.91;5145304;27;20205;-79
2022/11/07 02:03:34;;;;;;;3.90;1.00;;;;;;;-145.69;100.00;52579.06;5145805;27;20211;-79
2022/11/07 02:06:05;;;;;;;3.87;1.27;;;;;;;-145.69;100.00;52559.25;5143574;27;20283;-80
2022/11/07 02:08:36;;;;;;;2.77;1.30;;;;;;;-145.69;100.00;52579.06;5142281;27;20204;-80
2022/11/07 02:11:08;;;;;;;5.10;1.47;;;;;;;-145.69;100.00;52571.13;5139041;27;20200;-80
2022/11/07 02:13:36;;;;;;;3.27;1.30;;;;;;;-145.69;100.00;52539.44;5140130;27;20224;-80
2022/11/07 02:16:04;;;;;;;5.70;1.77;;;;;;;-145.69;100.00;52539.44;5138254;27;20204;-79
2022/11/07 02:18:36;;;;;;;3.57;1.30;;;;;;;-145.69;100.00;52551.31;5136938;27;20215;-79
2022/11/07 02:21:10;;;;;;;6.53;1.23;;;;;;;-145.69;100.00;52507.75;5136031;27;20204;-79
2022/11/07 02:23:47;;;;;;;2.13;0.80;;;;;;;-145.69;100.00;52565.19;5137483;27;20595;-79
2022/11/07 02:26:14;;;;;;;5.03;1.20;;;;;;;-145.69;100.00;52515.69;5137445;27;20203;-80
2022/11/07 02:28:43;;;;;;;2.00;1.17;;;;;;;-145.69;100.00;52535.47;5137314;27;20204;-80
2022/11/07 02:31:10;;;;;;;4.07;1.10;;;;;;;-145.69;100.00;52539.44;5143889;27;20555;-80
2022/11/07 02:33:36;;;;;;;6.67;1.10;;;;;;;-145.69;100.00;52555.28;5163065;27;20240;-80
2022/11/07 02:36:03;;;;;;;2.27;1.20;;;;;;;-145.69;100.00;52547.38;5162385;27;20196;-80
2022/11/07 02:38:34;;;;;;;2.83;1.00;;;;;;;-145.69;100.00;52529.53;5163147;27;20200;-80
2022/11/07 02:41:04;;;;;;;1.77;1.20;;;;;;;-145.69;100.00;52547.38;5161975;27;20296;-80
2022/11/07 02:43:35;;;;;;;5.57;1.00;;;;;;;-145.69;100.00;52543.41;5161897;27;20200;-80
2022/11/07 02:46:05;;;;;;;1.43;0.80;;;;;;;-145.69;100.00;52555.28;5161475;27;20257;-80
2022/11/07 02:48:40;;;;;;;1.70;0.90;;;;;;;-145.69;100.00;52535.47;5160715;27;20256;-80
2022/11/07 02:51:07;;;;;;;4.27;1.37;;;;;;;-145.69;100.00;52549.34;5162437;27;20200;-79
2022/11/07 02:53:33;;;;;;;3.90;1.07;;;;;;;-145.69;100.00;52523.59;5162092;27;20224;-79
2022/11/07 02:56:03;;;;;;;2.80;1.07;;;;;;;-145.69;100.00;52539.44;5162961;27;20212;-80
2022/11/07 02:58:29;;;;;;;2.60;0.90;;;;;;;-145.69;100.00;52527.56;5162729;27;20282;-80
2022/11/07 03:01:05;;;;;;;3.50;0.80;;;;;;;-145.69;100.00;52547.38;5161815;27;20202;-80
2022/11/07 03:03:33;;;;;;;4.17;0.90;;;;;;;-145.69;100.00;52547.38;5160558;27;20218;-80
2022/11/07 03:06:00;;;;;;;4.83;0.90;;;;;;;-145.69;100.00;52515.69;5162344;27;20196;-80
2022/11/07 03:08:26;;;;;;;6.67;1.20;;;;;;;-145.69;100.00;52527.56;5162983;27;20236;-80
2022/11/07 03:10:53;;;;;;;2.40;0.93;;;;;;;-145.69;100.00;52586.97;5177294;27;20186;-80
2022/11/07 03:13:19;;;;;;;2.00;0.97;;;;;;;-145.69;100.00;52545.38;5168064;27;20254;-80
2022/11/07 03:15:48;;;;;;;1.73;1.10;;;;;;;-145.69;100.00;52547.38;5148323;27;20232;-79
2022/11/07 03:18:17;;;;;;;2.87;1.00;;;;;;;-145.69;100.00;52563.22;5135721;27;20208;-79
2022/11/07 03:20:43;;;;;;;1.33;1.00;;;;;;;-145.69;100.00;52517.66;5144401;27;20659;-80
2022/11/07 03:23:10;;;;;;;1.97;0.90;;;;;;;-145.69;100.00;52551.31;5143989;27;20197;-80
2022/11/07 03:25:36;;;;;;;3.37;0.90;;;;;;;-145.69;100.00;52517.66;5146888;27;20196;-80
2022/11/07 03:28:04;;;;;;;2.50;1.00;;;;;;;-145.69;100.00;52547.38;5144661;27;20208;-80
2022/11/07 03:30:30;;;;;;;3.33;0.90;;;;;;;-145.69;100.00;52511.72;5143789;27;20203;-80
2022/11/07 03:32:58;;;;;;;2.43;0.90;;;;;;;-145.69;100.00;52531.53;5141439;27;20686;-79
2022/11/07 03:35:27;;;;;;;3.17;0.73;;;;;;;-145.69;100.00;52535.47;5138886;27;20203;-80
2022/11/07 03:37:54;;;;;;;1.97;0.80;;;;;;;-145.69;100.00;52511.72;5141455;27;20201;-80
2022/11/07 03:40:21;;;;;;;5.63;0.90;;;;;;;-145.69;100.00;52559.25;5139072;27;20528;-80
2022/11/07 03:42:47;;;;;;;4.63;1.10;;;;;;;-145.69;100.00;52545.38;5139021;27;20196;-80
2022/11/07 03:45:16;;;;;;;3.73;0.73;;;;;;;-145.69;100.00;52535.47;5139292;27;20201;-80
2022/11/07 03:47:44;;;;;;;3.23;1.00;;;;;;;-145.69;100.00;52543.41;5140092;27;20719;-80
2022/11/07 03:50:13;;;;;;;2.50;0.80;;;;;;;-145.69;100.00;52575.09;5139810;27;20201;-80
2022/11/07 03:52:42;;;;;;;4.27;1.00;;;;;;;-145.69;100.00;52545.38;5139408;27;20200;-80
2022/11/07 03:55:09;;;;;;;2.53;1.00;;;;;;;-145.69;100.00;52529.53;5119448;28;20197;-80
2022/11/07 03:57:36;;;;;;;3.60;1.00;;;;;;;-145.69;100.00;52491.91;5121652;28;20201;-80
2022/11/07 04:00:04;;;;;;;1.20;0.80;;;;;;;-145.69;100.00;52531.53;5119999;28;20202;-80
2022/11/07 04:02:31;;;;;;;5.43;1.00;;;;;;;-145.69;100.00;52539.44;5120913;28;20202;-80
2022/11/07 04:04:57;;;;;;;1.70;0.90;;;;;;;-145.69;100.00;52539.44;5122077;28;20205;-80
2022/11/07 04:07:24;;;;;;;4.60;1.00;;;;;;;-145.69;100.00;52539.44;5120120;28;20201;-80
2022/11/07 04:09:52;;;;;;;4.43;0.80;;;;;;;-145.69;100.00;52565.19;5123721;28;20193;-80
2022/11/07 04:17:46;;;;;;;1.97;1.00;;;;;;;-145.69;100.00;52555.28;5126116;28;20227;-80
2022/11/07 04:20:13;;;;;;;3.27;0.93;;;;;;;-145.69;100.00;52503.81;5127261;28;20223;-81
2022/11/07 04:22:39;;;;;;;4.10;0.97;;;;;;;-145.69;100.00;52511.72;5128922;28;20189;-80
2022/11/07 04:25:09;;;;;;;3.37;0.90;;;;;;;-145.69;100.00;52499.84;5125857;28;20290;-80
2022/11/07 04:27:45;;;;;;;3.33;1.00;;;;;;;-145.69;100.00;52539.44;5124716;28;20209;-80
2022/11/07 04:30:22;;;;;;;2.10;1.00;;;;;;;-145.69;100.00;52541.44;5125389;28;20201;-80
2022/11/07 04:32:50;;;;;;;3.30;0.97;;;;;;;-145.69;100.00;52517.66;5125145;28;20264;-81
2022/11/07 04:35:17;;;;;;;5.20;0.97;;;;;;;-145.69;100.00;52507.75;5122909;28;20225;-81
2022/11/07 04:37:44;;;;;;;2.83;1.20;;;;;;;-145.69;100.00;52531.53;5121362;28;20212;-81
2022/11/07 04:40:12;;;;;;;3.13;1.13;;;;;;;-145.69;100.00;52521.63;5127150;28;20291;-81
2022/11/07 04:42:39;;;;;;;3.93;1.50;;;;;;;-145.69;100.00;52535.47;5127722;28;20277;-81
2022/11/07 04:45:06;;;;;;;7.90;1.00;;;;;;;-145.69;100.00;52539.44;5123421;28;20688;-81
2022/11/07 04:47:33;;;;;;;2.77;0.90;;;;;;;-145.69;100.00;52529.53;5125292;28;20213;-81
2022/11/07 04:50:00;;;;;;;3.17;0.87;;;;;;;-145.69;100.00;52539.44;5126979;28;20560;-80
2022/11/07 04:52:26;;;;;;;3.43;1.00;;;;;;;-145.69;100.00;52531.53;5129032;28;20201;-81
2022/11/07 04:54:52;;;;;;;1.73;0.90;;;;;;;-145.69;100.00;52555.28;5128255;28;20236;-80
2022/11/07 04:57:20;;;;;;;1.93;0.97;;;;;;;-145.69;100.00;52551.31;5125850;28;20278;-81
2022/11/07 04:59:47;;;;;;;3.27;1.10;;;;;;;-145.69;100.00;52547.38;5122736;28;20198;-81
2022/11/07 05:02:13;;;;;;;4.73;1.17;;;;;;;-145.69;100.00;52531.53;5123694;28;20200;-81
2022/11/07 05:04:40;;;;;;;2.60;1.00;;;;;;;-145.69;100.00;52539.44;5126950;28;20197;-80
2022/11/07 05:07:08;;;;;;;1.63;1.00;;;;;;;-145.69;100.00;52515.69;5125003;28;20197;-82
2022/11/07 05:09:35;;;;;;;6.33;1.17;;;;;;;-145.69;100.00;52525.59;5122626;28;20200;-81
2022/11/07 05:12:02;;;;;;;3.90;1.20;;;;;;;-145.69;100.00;52541.44;5118626;28;20197;-81
2022/11/07 05:14:30;;;;;;;5.83;1.10;;;;;;;-145.69;100.00;52493.91;5132370;27;20221;-81
2022/11/07 05:16:58;;;;;;;3.23;1.00;;;;;;;-145.69;100.00;52541.44;5139555;27;20224;-81
2022/11/07 05:19:24;;;;;;;2.97;1.17;;;;;;;-145.69;100.00;52511.72;5138177;27;20219;-81
2022/11/07 05:23:10;;;;;;;5.00;1.27;;;;;;;-145.69;100.00;52541.44;5140834;27;20662;-81
2022/11/07 05:24:36;;;;;;;2.50;1.03;;;;;;;-145.69;100.00;52533.50;5144712;27;20707;-80
2022/11/07 05:27:03;;;;;;;9.20;1.30;;;;;;;-145.69;100.00;52497.84;5145990;27;20201;-80
2022/11/07 05:29:31;;;;;;;2.43;0.70;;;;;;;-145.69;100.00;52535.47;5144780;27;20215;-81
2022/11/07 05:31:58;;;;;;;2.70;1.03;;;;;;;-145.69;100.00;52535.47;5144111;27;20264;-81
2022/11/07 05:34:24;;;;;;;3.73;1.20;;;;;;;-145.69;100.00;52551.31;5143571;27;20332;-81
2022/11/07 05:36:51;;;;;;;11.00;2.23;;;;;;;-145.69;100.00;52543.41;5144457;27;20577;-80
2022/11/07 05:39:18;;;;;;;4.90;1.20;;;;;;;-145.69;100.00;52525.59;5145136;27;20287;-80
2022/11/07 05:41:45;;;;;;;2.30;1.00;;;;;;;-145.69;100.00;52537.47;5144186;27;20228;-81
2022/11/07 05:44:11;;;;;;;6.30;1.20;;;;;;;-145.69;100.00;52541.44;5144972;27;20287;-80
2022/11/07 05:46:39;;;;;;;5.03;1.30;;;;;;;-145.69;100.00;52513.69;5143324;27;20664;-80
2022/11/07 05:49:06;;;;;;;2.97;1.17;;;;;;;-145.69;100.00;52563.22;5142010;27;20331;-80
2022/11/07 05:51:32;;;;;;;5.10;1.10;;;;;;;-145.69;100.00;52585.00;5143514;27;20204;-80
2022/11/07 05:53:59;;;;;;;3.23;1.37;;;;;;;-145.69;100.00;52535.47;5142938;27;20701;-80
2022/11/07 05:56:25;;;;;;;2.60;1.17;;;;;;;-145.69;100.00;52537.47;5142190;27;20654;-81
2022/11/07 05:58:52;;;;;;;8.90;1.43;;;;;;;-145.69;100.00;52553.31;5144115;27;20209;-80
2022/11/07 06:01:18;;;;;;;5.17;1.00;;;;;;;-145.69;100.00;52535.47;5143696;27;20196;-80
2022/11/07 06:03:46;;;;;;;3.57;1.10;;;;;;;-145.69;100.00;52523.59;5142967;27;20196;-81
2022/11/07 06:06:13;;;;;;;6.00;1.30;;;;;;;-145.69;100.00;52521.63;5142539;27;20203;-80
2022/11/07 06:08:39;;;;;;;3.00;1.10;;;;;;;-145.69;100.00;52575.09;5143266;27;20260;-79
2022/11/07 06:11:06;;;;;;;2.80;1.20;;;;;;;-145.69;100.00;52515.69;5142644;27;20201;-79
2022/11/07 06:13:32;;;;;;;4.67;1.07;;;;;;;-145.69;100.00;52541.44;5143067;27;20201;-79
2022/11/07 06:15:59;;;;;;;4.73;1.10;;;;;;;-145.69;100.00;52533.50;5142701;27;20217;-79
2022/11/07 06:18:25;;;;;;;4.23;1.77;;;;;;;-145.69;100.00;52531.53;5143317;27;20197;-80
2022/11/07 06:20:53;;;;;;;2.83;0.97;;;;;;;-145.69;100.00;52527.56;5141973;27;20200;-79
2022/11/07 06:23:20;;;;;;;2.73;1.00;;;;;;;-145.69;100.00;52533.50;5140812;27;20197;-80
2022/11/07 06:25:46;;;;;;;5.80;1.10;;;;;;;-145.69;100.00;52503.81;5141676;27;20225;-80
2022/11/07 06:28:14;;;;;;;3.03;1.10;;;;;;;-145.69;100.00;52519.63;5142339;27;20226;-79
2022/11/07 06:30:41;;;;;;;5.47;1.00;;;;;;;-145.69;100.00;52553.31;5141683;27;20200;-79
2022/11/07 06:33:11;;;;;;;10.10;1.60;;;;;;;-145.69;100.00;52545.38;5142579;27;20201;-79
2022/11/07 06:35:38;;;;;;;4.97;1.30;;;;;;;-145.69;100.00;52537.47;5143949;27;20235;-79
2022/11/07 06:38:08;;;;;;;5.17;1.10;;;;;;;-145.69;100.00;52547.38;5141212;27;20265;-79
2022/11/07 06:40:34;;;;;;;7.40;1.30;;;;;;;-145.69;100.00;52527.56;5138344;27;20219;-80
2022/11/07 06:43:09;;;;;;;4.87;1.40;;;;;;;-145.69;100.00;52557.28;5139202;27;20197;-80
2022/11/07 06:45:36;;;;;;;7.27;1.77;;;;;;;-145.69;100.00;52551.31;5143516;27;20260;-79
2022/11/07 06:48:02;;;;;;;3.73;1.60;;;;;;;-145.69;100.00;52563.22;5142681;27;20196;-79
2022/11/07 06:50:29;;;;;;;9.00;1.40;;;;;;;-145.69;100.00;52497.84;5140926;27;20192;-80
2022/11/07 06:52:55;;;;;;;2.63;1.60;;;;;;;-145.69;100.00;52547.38;5137309;27;20564;-80
2022/11/07 06:55:23;;;;;;;8.23;1.40;;;;;;;-145.69;100.00;52547.38;5139437;27;20232;-79
2022/11/07 06:57:49;;;;;;;6.40;1.50;;;;;;;-145.69;100.00;52523.59;5142865;27;20673;-79
2022/11/07 07:00:17;;;;;;;3.73;1.50;;;;;;;-145.69;100.00;52543.41;5141615;27;20197;-79
2022/11/07 07:02:43;;;;;;;6.43;1.40;;;;;;;-145.69;100.00;52539.44;5139217;27;20219;-79
2022/11/07 07:05:10;;;;;;;8.27;1.43;;;;;;;-145.69;100.00;52553.31;5137472;27;20196;-80
2022/11/07 07:07:36;;;;;;;2.20;1.13;;;;;;;-145.69;100.00;52543.41;5139552;27;20201;-79
2022/11/07 07:10:03;;;;;;;5.67;1.40;;;;;;;-145.69;100.00;52553.31;5140333;27;20237;-79
2022/11/07 07:12:31;;;;;;;9.10;1.37;;;;;;;-145.69;100.00;52525.59;5140247;27;20200;-79
2022/11/07 07:14:58;;;;;;;7.23;1.50;;;;;;;-145.69;100.00;52525.59;5139319;27;20224;-79
2022/11/07 07:17:24;;;;;;;2.50;1.30;;;;;;;-145.69;100.00;52535.47;5141050;27;20656;-79
2022/11/07 07:19:51;;;;;;;3.60;1.00;;;;;;;-145.69;100.00;52525.59;5140530;27;20260;-79
2022/11/07 07:22:18;;;;;;;7.67;1.33;;;;;;;-145.69;100.00;52547.38;5139670;27;20218;-79
2022/11/07 07:24:46;;;;;;;6.00;1.80;;;;;;;-145.69;100.00;52507.75;5137868;27;20275;-79
2022/11/07 07:27:13;;;;;;;3.97;1.20;;;;;;;-145.69;100.00;52519.63;5138949;27;20727;-79
2022/11/07 07:29:41;;;;;;;3.33;1.40;;;;;;;-145.69;100.00;52527.56;5143181;27;20201;-79
2022/11/07 07:32:07;;;;;;;3.80;1.10;;;;;;;-145.69;100.00;52521.63;5148449;27;20200;-80
2022/11/07 07:34:34;;;;;;;6.17;1.00;;;;;;;-145.69;100.00;52531.53;5148421;27;20268;-80
2022/11/07 07:37:00;;;;;;;4.87;1.10;;;;;;;-145.69;100.00;52515.69;5143823;27;20204;-80
2022/11/07 07:39:27;;;;;;;3.77;1.20;;;;;;;-145.69;100.00;52519.63;5139863;27;20207;-80
2022/11/07 07:41:53;;;;;;;4.67;1.30;;;;;;;-145.69;100.00;52519.63;5138563;27;20201;-80
2022/11/07 07:44:20;;;;;;;6.53;1.70;;;;;;;-145.69;100.00;52509.75;5149676;27;20211;-79
2022/11/07 07:46:48;;;;;;;3.73;1.10;;;;;;;-145.69;100.00;52507.75;5154526;27;20201;-79
2022/11/07 07:49:14;;;;;;;4.63;1.23;;;;;;;-145.69;100.00;52503.81;5152545;28;20180;-79
2022/11/07 07:51:41;;;;;;;4.53;1.00;;;;;;;-145.69;100.00;52491.91;5149597;27;20189;-79
2022/11/07 07:54:08;;;;;;;2.50;0.90;;;;;;;-145.69;100.00;52517.66;5135359;28;20250;-79
2022/11/07 07:56:34;;;;;;;4.40;1.50;;;;;;;-145.69;100.00;52509.75;5131502;28;20445;-80
2022/11/07 07:59:01;;;;;;;7.77;1.40;;;;;;;-145.69;100.00;52515.69;5129497;28;20208;-79
2022/11/07 08:01:28;;;;;;;5.60;1.43;;;;;;;-145.69;100.00;52499.84;5123189;28;20792;-79
2022/11/07 08:03:56;;;;;;;5.07;1.20;;;;;;;-145.69;100.00;52487.97;5120432;28;20542;-79
2022/11/07 08:06:22;;;;;;;4.43;1.40;;;;;;;-145.69;100.00;52480.03;5121279;28;20194;-79
2022/11/07 08:08:49;;;;;;;3.93;1.17;;;;;;;-145.69;100.00;52505.78;5120381;28;20197;-79
2022/11/07 08:11:15;;;;;;;5.37;1.20;;;;;;;-145.69;100.00;52468.16;5125288;28;20556;-79
2022/11/07 08:13:42;;;;;;;5.50;1.20;;;;;;;-145.69;100.00;52503.81;5132490;27;20192;-79
2022/11/07 08:16:09;;;;;;;3.40;1.10;;;;;;;-145.69;100.00;52472.13;5144643;27;20224;-79
2022/11/07 08:18:38;;;;;;;5.17;1.60;;;;;;;-145.69;100.00;52456.28;5144604;27;20200;-79
2022/11/07 08:21:07;;;;;;;9.77;1.20;;;;;;;-145.69;100.00;52485.97;5143784;27;20204;-80
2022/11/07 08:23:35;;;;;;;4.03;1.50;;;;;;;-145.69;100.00;52517.66;5141493;27;20201;-80
2022/11/07 08:26:03;;;;;;;5.27;1.20;;;;;;;-145.69;100.00;52480.03;5144007;27;20288;-81
2022/11/07 08:28:31;;;;;;;2.67;0.90;;;;;;;-145.69;100.00;52478.06;5139932;27;20238;-80
2022/11/07 08:30:59;;;;;;;6.77;1.43;;;;;;;-145.69;100.00;52474.09;5140405;27;20213;-80
2022/11/07 08:33:27;;;;;;;4.50;1.40;;;;;;;-145.69;100.00;52495.88;5142873;27;20281;-81
2022/11/07 08:35:55;;;;;;;5.37;1.00;;;;;;;-145.69;100.00;52491.91;5146776;27;20231;-80
2022/11/07 08:38:23;;;;;;;3.27;0.90;;;;;;;-145.69;100.00;52489.94;5150655;27;20200;-80
2022/11/07 08:40:50;;;;;;;1.88;0.93;;;;;;;-145.69;100.00;52472.13;5147876;27;20198;-81
2022/11/07 08:43:17;;;;;;;5.60;1.03;;;;;;;-145.69;100.00;52491.91;5140796;27;20195;-80
2022/11/07 08:45:43;;;;;;;3.90;1.00;;;;;;;-145.69;100.00;52480.03;5147292;27;20209;-79
2022/11/07 08:48:10;;;;;;;5.90;1.33;;;;;;;-145.69;100.00;52487.97;5144985;27;20878;-80
2022/11/07 08:50:37;;;;;;;3.50;1.10;;;;;;;-145.69;100.00;52499.84;5146705;27;20205;-80
2022/11/07 08:53:03;;;;;;;3.42;1.23;;;;;;;-145.69;100.00;52491.91;5147490;27;20260;-80
2022/11/07 08:55:31;;;;;;;5.13;1.35;;;;;;;-145.69;100.00;52487.97;5143092;27;20236;-81
2022/11/07 08:57:59;;;;;;;4.18;0.95;;;;;;;-145.69;100.00;52484.00;5140479;27;20378;-80
2022/11/07 09:00:29;;;;;;;7.18;1.30;;;;;;;-145.69;100.00;52505.78;5139178;27;20189;-80
2022/11/07 09:02:55;;;;;;;6.50;1.25;;;;;;;-145.69;100.00;52450.31;5144550;27;20450;-81
2022/11/07 09:05:22;;;;;;;4.75;1.05;;;;;;;-145.69;100.00;52466.16;5127758;27;20663;-81
2022/11/07 09:07:48;;;;;;;4.22;1.10;;;;;;;-145.69;100.00;52464.19;5124617;27;20257;-81
2022/11/07 09:10:15;;;;;;;5.10;0.98;;;;;;;-145.69;100.00;52472.13;5137208;27;20196;-80
2022/11/07 09:12:46;;;;;;;3.30;1.10;;;;;;;-145.69;100.00;52484.00;5136349;27;21119;-82
2022/11/07 09:15:13;;;;;;;3.30;1.00;;;;;;;-145.69;100.00;52448.34;5136719;27;20315;-81
2022/11/07 09:17:39;;;;;;;5.28;1.10;;;;;;;-145.69;100.00;52468.16;5136685;27;20211;-81
2022/11/07 09:20:07;;;;;;;7.47;1.20;;;;;;;-145.69;100.00;52454.28;5136364;27;20655;-81
2022/11/07 09:22:34;;;;;;;4.30;1.10;;;;;;;-145.69;100.00;52472.13;5135447;27;20655;-82
2022/11/07 09:25:01;;;;;;;3.28;1.00;;;;;;;-145.69;100.00;52484.00;5137302;27;20208;-80
2022/11/07 09:27:27;;;;;;;8.90;1.10;;;;;;;-145.69;100.00;52476.06;5136818;27;20570;-81
2022/11/07 09:29:55;;;;;;;6.78;1.20;;;;;;;-145.69;100.00;52432.50;5136378;27;20220;-81
2022/11/07 09:32:22;;;;;;;6.28;1.05;;;;;;;-145.69;100.00;52452.31;5143694;27;20201;-82
2022/11/07 09:34:48;;;;;;;3.95;0.68;;;;;;;-145.69;100.00;52487.97;5136405;27;20247;-82
2022/11/07 09:37:15;;;;;;;6.10;1.15;;;;;;;-145.69;100.00;52452.31;5136259;27;20245;-81
2022/11/07 09:39:45;;;;;;;8.68;1.38;;;;;;;-145.69;100.00;52484.00;5135967;27;20215;-82
2022/11/07 09:42:22;;;;;;;4.47;0.90;;;;;;;-145.69;100.00;52487.97;5137452;27;20197;-81
2022/11/07 09:44:56;;;;;;;7.97;1.08;;;;;;;-145.69;100.00;52482.00;5137103;27;20208;-82
2022/11/07 09:47:30;;;;;;;4.75;1.25;;;;;;;-145.69;100.00;52472.13;5133620;27;20690;-82
2022/11/07 09:50:00;;;;;;;2.47;0.70;;;;;;;-145.69;100.00;52478.06;5115981;27;20192;-81
2022/11/07 09:52:37;;;;;;;5.35;1.30;;;;;;;-145.69;100.00;52462.22;5128973;27;20197;-82
2022/11/07 09:55:14;;;;;;;3.97;1.10;;;;;;;-145.69;100.00;52456.28;5135866;27;20220;-81
2022/11/07 09:57:41;;;;;;;3.75;0.70;;;;;;;-145.69;100.00;52458.25;5135614;27;20193;-82
2022/11/07 10:00:15;;;;;;;6.25;1.02;;;;;;;-145.69;100.00;52454.28;5135522;27;20204;-81
2022/11/07 10:02:44;;;;;;;8.05;1.02;;;;;;;-145.69;100.00;52468.16;5135809;27;20629;-81
2022/11/07 10:05:14;;;;;;;5.57;1.05;;;;;;;-145.69;100.00;52432.50;5135527;27;20575;-81
2022/11/07 10:07:49;;;;;;;5.78;1.05;;;;;;;-145.69;100.00;52484.00;5135247;27;20193;-81
2022/11/07 10:10:21;;;;;;;4.43;1.52;;;;;;;-145.69;100.00;52440.44;5135120;27;20192;-82
2022/11/07 10:13:03;;;;;;;2.00;0.88;;;;;;;-145.69;100.00;52452.31;5134780;27;20204;-82
2022/11/07 10:15:46;;;;;;;4.65;1.00;;;;;;;-145.69;100.00;52446.38;5135151;27;20234;-82
2022/11/07 10:18:22;;;;;;;3.13;1.00;;;;;;;-145.69;100.00;52462.22;5135448;27;20200;-81
2022/11/07 10:20:58;;;;;;;2.17;0.85;;;;;;;-145.69;100.00;52444.38;5135125;27;20228;-81
2022/11/07 10:23:38;;;;;;;4.57;1.02;;;;;;;-145.69;100.00;52452.31;5134899;27;20291;-82
2022/11/07 10:26:08;;;;;;;2.28;1.00;;;;;;;-145.69;100.00;52460.22;5134947;27;20662;-81
2022/11/07 10:28:44;;;;;;;4.60;1.02;;;;;;;-145.69;100.00;52468.16;5136163;27;20197;-80
2022/11/07 10:31:13;;;;;;;4.07;0.82;;;;;;;-145.69;98.36;52452.31;5136031;27;20208;-80
2022/11/07 10:33:46;;;;;;;4.13;1.00;;;;;;;-145.69;100.00;52420.63;5134588;27;20228;-79
2022/11/07 10:36:21;;;;;;;2.95;0.82;;;;;;;-145.69;99.85;52440.44;5137395;27;20229;-81
2022/11/07 10:38:47;;;;;;;4.22;1.40;;;;;;;-145.69;98.53;52456.28;5136676;27;20204;-80
2022/11/07 10:41:16;;;;;;;3.55;1.10;;;;;;;-145.69;95.42;52428.53;5135619;27;20201;-80
2022/11/07 10:43:45;;;;;;;5.43;0.88;;;;;;;-145.69;97.98;52438.44;5134581;27;20204;-81
2022/11/07 10:46:19;;;;;;;1.40;0.80;;;;;;;-145.69;98.33;52392.91;5135014;27;20685;-79
2022/11/07 10:48:53;;;;;;;4.88;1.10;;;;;;;-145.69;99.22;52460.22;5134752;27;20659;-80
2022/11/07 10:51:19;;;;;;;1.85;0.80;;;;;;;-145.69;98.54;52434.47;5134898;27;20218;-80
2022/11/07 10:53:46;;;;;;;2.97;0.77;;;;;;;-145.69;94.81;52424.59;5134920;27;20284;-80
2022/11/07 10:56:13;;;;;;;6.10;1.50;;;;;;;-145.69;97.35;52462.22;5134369;27;20224;-80
2022/11/07 10:58:45;;;;;;;3.03;0.90;;;;;;;-145.69;93.94;52420.63;5134725;27;20666;-80
2022/11/07 11:01:12;;;;;;;2.83;0.90;;;;;;;-145.69;96.74;52432.50;5134866;27;20208;-79
2022/11/07 11:03:43;;;;;;;2.53;1.00;;;;;;;-145.69;95.51;52452.31;5134566;27;20189;-80
2022/11/07 11:06:12;;;;;;;1.33;0.60;;;;;;;-145.69;96.69;52420.63;5133299;27;20224;-80
2022/11/07 11:08:39;;;;;;;2.45;0.77;;;;;;;-145.69;95.53;52448.34;5137523;27;20286;-79
2022/11/07 11:11:19;;;;;;;4.57;0.90;;;;;;;-145.69;97.55;52418.63;5135043;27;20196;-79
2022/11/07 11:13:48;;;;;;;5.90;1.25;;;;;;;-145.69;96.52;52472.13;5133902;27;20208;-81
2022/11/07 11:16:26;;;;;;;0.95;0.75;;;;;;;-145.69;96.64;52420.63;5134167;27;20224;-81
2022/11/07 11:18:58;;;;;;;2.85;0.68;;;;;;;-145.69;92.08;52452.31;5134100;27;20275;-81
2022/11/07 11:21:25;;;;;;;2.30;0.60;;;;;;;-145.69;99.03;52446.38;5133483;27;20189;-79
2022/11/07 11:23:57;;;;;;;4.50;0.80;;;;;;;-145.69;93.87;52452.31;5132549;27;20464;-82
2022/11/07 11:26:30;;;;;;;1.77;1.00;;;;;;;-145.69;93.19;52420.63;5134308;27;20278;-82